createdAt,value
2023-04-01T00:01:17.823Z,10.16
2023-04-01T00:03:45.184Z,10.21
2023-04-01T00:06:17.768Z,10.27
2023-04-01T00:08:45.647Z,10.24
2023-04-01T00:11:12.816Z,10.25
2023-04-01T00:13:39.480Z,10.25
2023-04-01T00:16:17.660Z,10.23
2023-04-01T00:18:48.669Z,10.20
2023-04-01T00:21:16.917Z,10.22
2023-04-01T00:23:43.702Z,10.22
2023-04-01T00:26:10.756Z,10.20
2023-04-01T00:28:37.623Z,10.22
2023-04-01T00:31:11.621Z,10.23
2023-04-01T00:33:39.245Z,10.18
2023-04-01T00:36:14.898Z,10.17
2023-04-01T00:38:43.594Z,10.14
2023-04-01T00:41:15.835Z,10.12
2023-04-01T00:43:50.166Z,10.09
2023-04-01T00:46:16.973Z,10.07
2023-04-01T00:48:48.887Z,10.10
2023-04-01T00:51:19.920Z,10.10
2023-04-01T00:53:51.032Z,10.09
2023-04-01T00:56:40.839Z,10.12
2023-04-01T00:59:28.552Z,10.11
2023-04-01T01:01:55.541Z,10.12
2023-04-01T01:04:33.974Z,10.11
2023-04-01T01:07:24.741Z,10.14
2023-04-01T01:10:05.606Z,10.12
2023-04-01T01:12:42.074Z,10.09
2023-04-01T01:15:20.587Z,10.12
2023-04-01T01:17:56.312Z,10.10
2023-04-01T01:20:49.414Z,10.09
2023-04-01T01:23:41.102Z,10.07
2023-04-01T01:26:48.081Z,10.05
2023-04-01T01:29:52.284Z,10.08
2023-04-01T01:32:34.230Z,10.08
2023-04-01T01:35:38.528Z,10.10
2023-04-01T01:38:15.143Z,10.06
2023-04-01T01:40:45.937Z,10.10
2023-04-01T01:43:17.389Z,10.12
2023-04-01T01:45:50.433Z,10.12
2023-04-01T01:48:18.484Z,10.10
2023-04-01T01:50:48.152Z,10.14
2023-04-01T01:53:14.822Z,10.17
2023-04-01T01:55:44.362Z,10.15
2023-04-01T01:58:18.870Z,10.14
2023-04-01T02:00:51.413Z,10.13
2023-04-01T02:03:19.088Z,10.12
2023-04-01T02:05:46.103Z,10.13
2023-04-01T02:08:26.067Z,10.09
2023-04-01T02:11:06.944Z,10.06
2023-04-01T02:14:04.259Z,10.06
2023-04-01T02:16:40.273Z,10.05
2023-04-01T02:19:11.445Z,10.03
2023-04-01T02:21:40.674Z,10.08
2023-04-01T02:24:13.310Z,10.05
2023-04-01T02:26:41.035Z,10.08
2023-04-01T02:29:11.739Z,10.07
2023-04-01T02:31:38.777Z,10.08
2023-04-01T02:34:05.897Z,10.08
2023-04-01T02:36:33.551Z,10.08
2023-04-01T02:39:03.525Z,10.09
2023-04-01T02:41:30.212Z,10.08
2023-04-01T02:43:59.511Z,10.03
2023-04-01T02:46:26.692Z,10.03
2023-04-01T02:48:53.281Z,10.05
2023-04-01T02:51:20.174Z,10.07
2023-04-01T02:53:46.822Z,10.11
2023-04-01T02:56:13.473Z,10.11
2023-04-01T02:58:40.370Z,10.13
2023-04-01T03:01:09.831Z,10.01
2023-04-01T03:03:36.498Z,10.02
2023-04-01T03:06:08.235Z,10.05
2023-04-01T03:08:35.165Z,10.07
2023-04-01T03:11:01.832Z,10.08
2023-04-01T03:13:28.484Z,10.05
2023-04-01T03:15:55.691Z,10.06
2023-04-01T03:18:22.567Z,10.05
2023-04-01T03:20:49.189Z,10.02
2023-04-01T03:23:18.446Z,9.92
2023-04-01T03:25:45.140Z,9.90
2023-04-01T03:28:14.408Z,9.93
2023-04-01T03:30:43.376Z,9.89
2023-04-01T03:33:10.149Z,9.98
2023-04-01T03:35:37.174Z,9.97
2023-04-01T03:38:03.878Z,9.95
2023-04-01T03:40:30.533Z,9.92
2023-04-01T03:42:57.353Z,9.91
2023-04-01T03:45:24.129Z,9.91
2023-04-01T03:47:50.808Z,9.93
2023-04-01T03:50:17.540Z,9.93
2023-04-01T03:52:46.441Z,9.97
2023-04-01T03:55:13.391Z,9.99
2023-04-01T03:57:40.004Z,9.97
2023-04-01T04:00:07.338Z,9.98
2023-04-01T04:02:34.031Z,10.01
2023-04-01T04:05:00.730Z,9.99
2023-04-01T04:07:27.364Z,9.97
2023-04-01T04:09:53.986Z,9.96
2023-04-01T04:12:20.600Z,9.93
2023-04-01T04:14:47.176Z,9.95
2023-04-01T04:17:17.454Z,9.94
2023-04-01T04:19:44.587Z,9.99
2023-04-01T04:22:11.286Z,10.03
2023-04-01T04:24:38.924Z,10.00
2023-04-01T04:27:05.992Z,10.01
2023-04-01T04:29:32.574Z,10.02
2023-04-01T04:31:59.289Z,9.99
2023-04-01T04:34:26.084Z,9.97
2023-04-01T04:36:52.759Z,9.99
2023-04-01T04:39:19.410Z,9.96
2023-04-01T04:41:46.140Z,10.00
2023-04-01T04:44:12.922Z,10.02
2023-04-01T04:46:40.557Z,10.01
2023-04-01T04:49:07.913Z,9.98
2023-04-01T04:51:36.899Z,9.97
2023-04-01T04:54:04.441Z,9.96
2023-04-01T04:56:31.912Z,9.96
2023-04-01T04:58:59.341Z,9.99
2023-04-01T05:01:26.622Z,10.00
2023-04-01T05:03:53.313Z,10.03
2023-04-01T05:06:23.373Z,10.08
2023-04-01T05:08:50.202Z,10.00
2023-04-01T05:11:20.722Z,10.01
2023-04-01T05:13:47.647Z,10.01
2023-04-01T05:16:17.518Z,9.96
2023-04-01T05:18:44.931Z,10.01
2023-04-01T05:21:13.216Z,9.98
2023-04-01T05:23:40.445Z,9.95
2023-04-01T05:26:09.671Z,9.94
2023-04-01T05:28:36.507Z,9.92
2023-04-01T05:31:04.197Z,9.93
2023-04-01T05:33:31.428Z,9.95
2023-04-01T05:36:07.133Z,9.98
2023-04-01T05:38:33.832Z,9.98
2023-04-01T05:41:04.267Z,9.97
2023-04-01T05:43:31.321Z,9.99
2023-04-01T05:45:59.480Z,10.04
2023-04-01T05:48:26.124Z,10.06
2023-04-01T05:50:52.726Z,10.05
2023-04-01T05:53:19.509Z,10.05
2023-04-01T05:55:46.205Z,9.98
2023-04-01T05:58:12.869Z,9.95
2023-04-01T06:00:39.757Z,9.93
2023-04-01T06:03:06.465Z,9.93
2023-04-01T06:05:41.232Z,9.91
2023-04-01T06:08:20.350Z,9.95
2023-04-01T06:10:56.180Z,9.98
2023-04-01T06:13:47.146Z,10.00
2023-04-01T06:16:19.412Z,10.03
2023-04-01T06:19:15.252Z,10.11
2023-04-01T06:22:04.233Z,10.10
2023-04-01T06:24:55.290Z,10.09
2023-04-01T06:27:30.953Z,10.09
2023-04-01T06:30:39.595Z,10.04
2023-04-01T06:33:16.134Z,10.05
2023-04-01T06:35:57.982Z,10.11
2023-04-01T06:38:51.605Z,10.15
2023-04-01T06:41:39.440Z,10.20
2023-04-01T06:44:28.224Z,10.23
2023-04-01T06:47:24.240Z,10.30
2023-04-01T06:49:56.888Z,10.32
2023-04-01T06:52:31.538Z,10.27
2023-04-01T06:55:31.166Z,10.34
2023-04-01T06:58:01.093Z,10.31
2023-04-01T07:00:31.778Z,10.30
2023-04-01T07:03:10.630Z,10.33
2023-04-01T07:05:37.305Z,10.34
2023-04-01T07:08:07.096Z,10.33
2023-04-01T07:10:47.582Z,10.38
2023-04-01T07:13:22.607Z,10.44
2023-04-01T07:16:17.077Z,10.46
2023-04-01T07:18:57.728Z,10.41
2023-04-01T07:21:37.321Z,10.41
2023-04-01T07:24:13.206Z,10.42
2023-04-01T07:26:39.878Z,10.48
2023-04-01T07:29:12.110Z,10.39
2023-04-01T07:31:46.417Z,10.46
2023-04-01T07:34:28.574Z,10.41
2023-04-01T07:37:08.541Z,10.41
2023-04-01T07:39:41.204Z,10.34
2023-04-01T07:42:30.901Z,10.27
2023-04-01T07:45:22.234Z,10.25
2023-04-01T07:47:59.087Z,10.23
2023-04-01T07:50:31.210Z,10.15
2023-04-01T07:53:18.312Z,10.19
2023-04-01T07:56:13.931Z,10.18
2023-04-01T07:58:56.132Z,10.11
2023-04-01T08:01:41.534Z,10.11
2023-04-01T08:04:24.751Z,10.16
2023-04-01T08:06:59.337Z,10.19
2023-04-01T08:09:48.592Z,10.22
2023-04-01T08:12:36.997Z,10.26
2023-04-01T08:15:28.380Z,10.29
2023-04-01T08:18:16.658Z,10.31
2023-04-01T08:20:48.653Z,10.25
2023-04-01T08:23:30.400Z,10.31
2023-04-01T08:25:57.247Z,10.28
2023-04-01T08:28:47.017Z,10.25
2023-04-01T08:31:26.250Z,10.23
2023-04-01T08:33:56.174Z,10.26
2023-04-01T08:36:28.397Z,10.27
2023-04-01T08:39:10.486Z,10.24
2023-04-01T08:41:56.032Z,10.30
2023-04-01T08:44:43.246Z,10.30
2023-04-01T08:47:31.585Z,10.36
2023-04-01T08:50:26.376Z,10.36
2023-04-01T08:53:07.495Z,10.38
2023-04-01T08:55:53.743Z,10.38
2023-04-01T08:58:39.245Z,10.34
2023-04-01T09:01:18.732Z,10.34
2023-04-01T09:04:14.746Z,10.38
2023-04-01T09:06:45.817Z,10.30
2023-04-01T09:09:39.726Z,10.39
2023-04-01T09:12:25.406Z,10.40
2023-04-01T09:15:07.446Z,10.47
2023-04-01T09:18:02.716Z,10.57
2023-04-01T09:20:39.552Z,10.59
2023-04-01T09:23:33.247Z,10.63
2023-04-01T09:26:23.300Z,10.59
2023-04-01T09:29:17.748Z,10.66
2023-04-01T09:31:53.518Z,10.70
2023-04-01T09:34:38.284Z,10.63
2023-04-01T09:37:35.421Z,10.75
2023-04-01T09:40:11.431Z,10.84
2023-04-01T09:43:06.656Z,10.75
2023-04-01T09:45:33.474Z,10.77
2023-04-01T09:48:25.253Z,10.75
2023-04-01T09:51:12.479Z,10.77
2023-04-01T09:53:49.687Z,10.76
2023-04-01T09:56:54.061Z,10.75
2023-04-01T09:59:48.439Z,10.75
2023-04-01T10:02:59.003Z,10.73
2023-04-01T10:05:31.613Z,10.75
2023-04-01T10:08:20.058Z,10.79
2023-04-01T10:11:26.308Z,10.85
2023-04-01T10:14:25.234Z,10.84
2023-04-01T10:17:19.765Z,10.78
2023-04-01T10:20:14.545Z,10.75
2023-04-01T10:22:41.289Z,10.77
2023-04-01T10:25:29.134Z,10.76
2023-04-01T10:28:17.230Z,10.74
2023-04-01T10:31:13.554Z,10.78
2023-04-01T10:34:21.832Z,10.77
2023-04-01T10:36:59.265Z,10.77
2023-04-01T10:39:53.595Z,10.81
2023-04-01T10:42:57.935Z,10.84
2023-04-01T10:45:49.799Z,10.84
2023-04-01T10:48:22.167Z,10.80
2023-04-01T10:51:13.745Z,10.78
2023-04-01T10:53:43.360Z,10.83
2023-04-01T10:56:34.992Z,10.79
2023-04-01T10:59:15.425Z,10.80
2023-04-01T11:02:27.234Z,10.81
2023-04-01T11:05:43.652Z,10.76
2023-04-01T11:08:46.818Z,10.77
2023-04-01T11:11:44.602Z,10.81
2023-04-01T11:14:14.754Z,10.77
2023-04-01T11:16:54.552Z,10.78
2023-04-01T11:19:56.527Z,10.72
2023-04-01T11:22:51.755Z,10.74
2023-04-01T11:25:26.327Z,10.83
2023-04-01T11:27:56.060Z,10.81
2023-04-01T11:30:42.311Z,10.86
2023-04-01T11:33:29.690Z,10.85
2023-04-01T11:37:04.216Z,10.91
2023-04-01T11:39:48.871Z,10.89
2023-04-01T11:42:33.797Z,10.91
2023-04-01T11:45:39.184Z,10.93
2023-04-01T11:48:26.470Z,10.89
2023-04-01T11:50:53.415Z,10.83
2023-04-01T11:53:35.237Z,10.77
2023-04-01T11:56:36.099Z,10.78
2023-04-01T11:59:25.570Z,10.83
2023-04-01T12:02:08.453Z,10.84
2023-04-01T12:04:49.957Z,10.78
2023-04-01T12:07:46.766Z,10.74
2023-04-01T12:10:23.019Z,10.73
2023-04-01T12:13:02.068Z,10.76
2023-04-01T12:15:53.618Z,10.79
2023-04-01T12:18:51.315Z,10.85
2023-04-01T12:21:37.377Z,10.91
2023-04-01T12:24:22.444Z,10.99
2023-04-01T12:27:17.840Z,11.08
2023-04-01T12:30:06.366Z,11.21
2023-04-01T12:32:46.905Z,11.20
2023-04-01T12:35:30.958Z,11.24
2023-04-01T12:38:15.063Z,11.19
2023-04-01T12:40:53.123Z,11.18
2023-04-01T12:43:36.462Z,11.18
2023-04-01T12:46:11.904Z,11.12
2023-04-01T12:48:54.920Z,11.08
2023-04-01T12:51:46.820Z,11.06
2023-04-01T12:55:01.545Z,10.98
2023-04-01T12:57:42.931Z,11.01
2023-04-01T13:00:45.228Z,10.98
2023-04-01T13:03:30.146Z,10.93
2023-04-01T13:06:20.940Z,10.89
2023-04-01T13:09:28.245Z,10.89
2023-04-01T13:12:11.181Z,10.90
2023-04-01T13:15:16.663Z,10.89
2023-04-01T13:17:58.745Z,10.83
2023-04-01T13:20:34.705Z,10.83
2023-04-01T13:23:35.584Z,10.79
2023-04-01T13:26:14.208Z,10.82
2023-04-01T13:29:12.975Z,10.82
2023-04-01T13:32:07.555Z,10.83
2023-04-01T13:34:59.777Z,10.85
2023-04-01T13:37:53.666Z,10.84
2023-04-01T13:40:59.589Z,10.87
2023-04-01T13:43:40.890Z,10.90
2023-04-01T13:46:51.389Z,10.85
2023-04-01T13:49:59.547Z,10.85
2023-04-01T13:52:31.981Z,10.88
2023-04-01T13:55:17.241Z,10.84
2023-04-01T13:57:49.791Z,10.81
2023-04-01T14:00:31.730Z,10.80
2023-04-01T14:03:52.047Z,10.81
2023-04-01T14:06:39.482Z,10.83
2023-04-01T14:09:23.063Z,10.86
2023-04-01T14:12:23.009Z,10.81
2023-04-01T14:15:23.044Z,10.77
2023-04-01T14:18:04.135Z,10.80
2023-04-01T14:20:41.928Z,10.81
2023-04-01T14:23:20.987Z,10.82
2023-04-01T14:26:16.285Z,10.85
2023-04-01T14:29:34.088Z,10.88
2023-04-01T14:32:07.812Z,10.86
2023-04-01T14:34:34.400Z,10.87
2023-04-01T14:37:35.040Z,10.87
2023-04-01T14:40:30.114Z,10.82
2023-04-01T14:42:59.924Z,10.78
2023-04-01T14:45:36.396Z,10.73
2023-04-01T14:48:41.064Z,10.74
2023-04-01T14:51:17.846Z,10.68
2023-04-01T14:54:06.034Z,10.65
2023-04-01T14:56:49.493Z,10.68
2023-04-01T14:59:28.394Z,10.66
2023-04-01T15:02:09.992Z,10.66
2023-04-01T15:05:02.487Z,10.72
2023-04-01T15:07:47.762Z,10.76
2023-04-01T15:10:21.928Z,10.83
2023-04-01T15:13:19.316Z,10.81
2023-04-01T15:16:10.670Z,10.85
2023-04-01T15:19:02.000Z,10.85
2023-04-01T15:21:35.174Z,10.85
2023-04-01T15:24:13.875Z,10.84
2023-04-01T15:27:13.785Z,10.82
2023-04-01T15:29:45.963Z,10.77
2023-04-01T15:32:24.912Z,10.74
2023-04-01T15:35:04.276Z,10.75
2023-04-01T15:37:59.859Z,10.75
2023-04-01T15:40:52.524Z,10.80
2023-04-01T15:43:54.720Z,10.82
2023-04-01T15:46:36.632Z,10.83
2023-04-01T15:49:23.768Z,10.83
2023-04-01T15:51:57.648Z,10.84
2023-04-01T15:54:58.099Z,10.87
2023-04-01T15:57:27.746Z,10.93
2023-04-01T16:00:19.414Z,10.88
2023-04-01T16:03:16.187Z,10.89
2023-04-01T16:06:12.110Z,10.89
2023-04-01T16:09:00.175Z,10.95
2023-04-01T16:11:45.148Z,11.02
2023-04-01T16:14:40.839Z,11.01
2023-04-01T16:17:35.913Z,11.04
2023-04-01T16:20:14.702Z,11.04
2023-04-01T16:22:46.085Z,11.05
2023-04-01T16:25:36.951Z,11.03
2023-04-01T16:28:29.169Z,11.05
2023-04-01T16:31:05.840Z,11.05
2023-04-01T16:33:52.170Z,10.99
2023-04-01T16:36:25.821Z,10.94
2023-04-01T16:39:19.501Z,10.91
2023-04-01T16:41:59.096Z,10.87
2023-04-01T16:44:28.519Z,10.85
2023-04-01T16:46:59.824Z,10.87
2023-04-01T16:49:56.239Z,10.85
2023-04-01T16:52:55.242Z,10.83
2023-04-01T16:55:25.487Z,10.83
2023-04-01T16:57:57.231Z,10.78
2023-04-01T17:00:42.811Z,10.79
2023-04-01T17:03:18.963Z,10.78
2023-04-01T17:06:05.900Z,10.75
2023-04-01T17:09:03.770Z,10.72
2023-04-01T17:11:38.591Z,10.70
2023-04-01T17:14:08.240Z,10.74
2023-04-01T17:16:48.761Z,10.75
2023-04-01T17:19:42.272Z,10.71
2023-04-01T17:22:30.824Z,10.71
2023-04-01T17:25:22.967Z,10.71
2023-04-01T17:28:08.069Z,10.69
2023-04-01T17:30:50.882Z,10.70
2023-04-01T17:33:44.641Z,10.72
2023-04-01T17:36:27.368Z,10.71
2023-04-01T17:39:11.564Z,10.70
2023-04-01T17:41:54.156Z,10.66
2023-04-01T17:44:45.941Z,10.69
2023-04-01T17:47:34.858Z,10.71
2023-04-01T17:50:20.160Z,10.68
2023-04-01T17:53:02.636Z,10.67
2023-04-01T17:55:48.160Z,10.72
2023-04-01T17:58:29.570Z,10.70
2023-04-01T18:01:15.262Z,10.67
2023-04-01T18:04:09.634Z,10.68
2023-04-01T18:06:55.593Z,10.68
2023-04-01T18:09:40.648Z,10.69
2023-04-01T18:12:17.153Z,10.65
2023-04-01T18:15:06.618Z,10.65
2023-04-01T18:17:53.910Z,10.64
2023-04-01T18:20:36.106Z,10.63
2023-04-01T18:23:18.307Z,10.66
2023-04-01T18:25:49.688Z,10.66
2023-04-01T18:28:20.249Z,10.64
2023-04-01T18:30:58.890Z,10.65
2023-04-01T18:33:42.255Z,10.66
2023-04-01T18:36:36.447Z,10.67
2023-04-01T18:39:20.025Z,10.66
2023-04-01T18:42:22.093Z,10.65
2023-04-01T18:44:53.499Z,10.67
2023-04-01T18:47:36.497Z,10.71
2023-04-01T18:50:38.779Z,10.72
2023-04-01T18:53:35.270Z,10.70
2023-04-01T18:56:07.505Z,10.66
2023-04-01T18:58:48.875Z,10.67
2023-04-01T19:01:23.988Z,10.60
2023-04-01T19:04:01.402Z,10.60
2023-04-01T19:06:48.710Z,10.58
2023-04-01T19:09:27.087Z,10.61
2023-04-01T19:12:34.768Z,10.57
2023-04-01T19:15:23.208Z,10.61
2023-04-01T19:18:03.613Z,10.62
2023-04-01T19:20:55.200Z,10.65
2023-04-01T19:23:55.130Z,10.64
2023-04-01T19:26:38.625Z,10.61
2023-04-01T19:29:14.579Z,10.57
2023-04-01T19:31:57.775Z,10.57
2023-04-01T19:34:35.944Z,10.54
2023-04-01T19:37:06.671Z,10.51
2023-04-01T19:40:15.865Z,10.48
2023-04-01T19:42:48.511Z,10.36
2023-04-01T19:45:15.067Z,10.35
2023-04-01T19:48:01.646Z,10.38
2023-04-01T19:50:52.188Z,10.41
2023-04-01T19:53:36.034Z,10.39
2023-04-01T19:56:24.974Z,10.39
2023-04-01T19:59:11.162Z,10.34
2023-04-01T20:01:46.268Z,10.31
2023-04-01T20:04:45.333Z,10.28
2023-04-01T20:07:23.693Z,10.28
2023-04-01T20:10:36.117Z,10.25
2023-04-01T20:13:16.909Z,10.22
2023-04-01T20:15:47.871Z,10.15
2023-04-01T20:18:21.347Z,10.12
2023-04-01T20:21:18.444Z,10.11
2023-04-01T20:24:03.001Z,10.03
2023-04-01T20:26:36.484Z,10.06
2023-04-01T20:29:27.957Z,10.06
2023-04-01T20:32:13.076Z,9.99
2023-04-01T20:35:18.266Z,9.98
2023-04-01T20:38:15.164Z,9.94
2023-04-01T20:40:48.015Z,9.92
2023-04-01T20:43:36.812Z,9.88
2023-04-01T20:46:26.486Z,9.85
2023-04-01T20:49:02.307Z,9.83
2023-04-01T20:51:36.494Z,9.84
2023-04-01T20:54:33.015Z,9.83
2023-04-01T20:57:28.802Z,9.72
2023-04-01T21:00:02.234Z,9.74
2023-04-01T21:02:31.811Z,9.73
2023-04-01T21:05:39.526Z,9.60
2023-04-01T21:08:23.550Z,9.48
2023-04-01T21:11:01.636Z,9.42
2023-04-01T21:13:52.983Z,9.45
2023-04-01T21:16:44.932Z,9.43
2023-04-01T21:19:30.041Z,9.44
2023-04-01T21:22:09.331Z,9.41
2023-04-01T21:25:02.894Z,9.32
2023-04-01T21:28:14.480Z,9.34
2023-04-01T21:30:53.080Z,9.39
2023-04-01T21:33:47.885Z,9.38
2023-04-01T21:36:45.509Z,9.41
2023-04-01T21:39:52.499Z,9.40
2023-04-01T21:42:32.397Z,9.24
2023-04-01T21:45:01.796Z,9.28
2023-04-01T21:47:28.412Z,9.22
2023-04-01T21:50:12.845Z,9.24
2023-04-01T21:53:13.576Z,9.17
2023-04-01T21:56:21.230Z,9.10
2023-04-01T21:59:14.129Z,9.11
2023-04-01T22:01:46.977Z,9.17
2023-04-01T22:05:01.889Z,9.02
2023-04-01T22:08:05.820Z,8.92
2023-04-01T22:10:52.381Z,8.90
2023-04-01T22:13:33.856Z,8.91
2023-04-01T22:16:18.880Z,8.94
2023-04-01T22:19:04.440Z,8.97
2023-04-01T22:21:53.280Z,8.88
2023-04-01T22:24:49.472Z,8.86
2023-04-01T22:27:28.354Z,8.80
2023-04-01T22:30:08.700Z,8.69
2023-04-01T22:32:38.429Z,8.69
2023-04-01T22:35:05.157Z,8.64
2023-04-01T22:37:31.853Z,8.64
2023-04-01T22:40:40.568Z,8.60
2023-04-01T22:43:14.520Z,8.60
2023-04-01T22:46:00.406Z,8.49
2023-04-01T22:48:53.592Z,8.50
2023-04-01T22:51:34.962Z,8.50
2023-04-01T22:54:17.604Z,8.46
2023-04-01T22:57:01.258Z,8.40
2023-04-01T22:59:46.303Z,8.42
2023-04-01T23:02:20.867Z,8.35
2023-04-01T23:04:56.886Z,8.36
2023-04-01T23:07:47.970Z,8.35
2023-04-01T23:10:42.176Z,8.31
2023-04-01T23:13:20.310Z,8.33
2023-04-01T23:15:50.467Z,8.34
2023-04-01T23:21:13.746Z,8.46
2023-04-01T23:24:14.903Z,8.31
2023-04-01T23:26:56.108Z,8.24
2023-04-01T23:29:26.131Z,8.20
2023-04-01T23:32:04.944Z,8.23
2023-04-01T23:34:33.671Z,8.21
2023-04-01T23:37:05.937Z,8.16
2023-04-01T23:39:45.128Z,8.15
2023-04-01T23:42:16.849Z,8.10
2023-04-01T23:44:45.024Z,8.13
2023-04-01T23:47:19.382Z,8.08
2023-04-01T23:49:54.180Z,8.02
2023-04-01T23:52:41.532Z,8.02
2023-04-01T23:55:32.388Z,8.03
2023-04-01T23:58:27.796Z,7.98
